Time;durP1;ratioP1;P1;durP2;ratioP2;P2;SDS_P1;SDS_P2;PMS_P1;PMS_P2;Temp;Humidity;BMP_temperature;BMP_pressure;BME280_temperature;BME280_humidity;BME280_pressure;Samples;Min_cycle;Max_cycle;Signal;HPM_P1;HPM_P2
2021/10/25 00:01:04;;;;;;;;;;;23.00;42.20;;;;;;1588167;73;1132;-66
2021/10/25 00:03:06;;;;;;;;;;;23.00;42.30;;;;;;1591270;74;806;-67
2021/10/25 00:05:08;;;;;;;;;;;23.00;42.30;;;;;;1588158;74;780;-70
2021/10/25 00:07:10;;;;;;;;;;;23.00;42.40;;;;;;1593026;74;732;-67
2021/10/25 00:09:12;;;;;;;;;;;22.90;42.40;;;;;;1591428;74;1922;-67
2021/10/25 00:11:14;;;;;;;;;;;23.00;42.30;;;;;;1590808;74;1124;-66
2021/10/25 00:13:16;;;;;;;;;;;23.00;42.30;;;;;;1588281;74;787;-66
2021/10/25 00:15:18;;;;;;;;;;;23.00;42.40;;;;;;1592102;74;772;-66
2021/10/25 00:17:20;;;;;;;;;;;23.00;42.40;;;;;;1589935;74;783;-66
2021/10/25 00:19:22;;;;;;;;;;;22.90;42.40;;;;;;1589745;74;791;-67
2021/10/25 00:21:24;;;;;;;;;;;22.90;42.30;;;;;;1591358;73;1161;-67
2021/10/25 00:23:25;;;;;;;;;;;23.00;42.40;;;;;;1588630;74;745;-67
2021/10/25 00:25:27;;;;;;;;;;;23.00;42.40;;;;;;1588407;74;822;-68
2021/10/25 00:27:29;;;;;;;;;;;23.00;42.50;;;;;;1586734;74;831;-67
2021/10/25 00:29:32;;;;;;;;;;;22.90;42.60;;;;;;1591207;74;1945;-67
2021/10/25 00:31:33;;;;;;;;;;;23.00;42.50;;;;;;1588299;74;1170;-70
2021/10/25 00:33:35;;;;;;;;;;;22.90;42.60;;;;;;1590925;74;795;-66
2021/10/25 00:35:37;;;;;;;;;;;22.90;42.60;;;;;;1588221;74;732;-66
2021/10/25 00:37:39;;;;;;;;;;;23.00;42.60;;;;;;1590282;74;717;-66
2021/10/25 00:39:41;;;;;;;;;;;22.90;42.70;;;;;;1587981;74;782;-67
2021/10/25 00:41:43;;;;;;;;;;;22.90;42.70;;;;;;1590198;73;1122;-66
2021/10/25 00:43:45;;;;;;;;;;;22.90;42.80;;;;;;1590184;74;760;-67
2021/10/25 00:45:47;;;;;;;;;;;22.90;42.80;;;;;;1587888;74;748;-68
2021/10/25 00:47:48;;;;;;;;;;;22.90;42.80;;;;;;1588001;74;878;-68
2021/10/25 00:49:50;;;;;;;;;;;23.00;42.80;;;;;;1583842;74;779;-67
2021/10/25 00:51:54;;;;;;;;;;;23.00;42.80;;;;;;1587970;73;1067;-66
2021/10/25 00:53:55;;;;;;;;;;;23.00;42.70;;;;;;1590196;74;785;-67
2021/10/25 00:55:57;;;;;;;;;;;22.90;42.70;;;;;;1589964;74;819;-68
2021/10/25 00:58:00;;;;;;;;;;;23.00;42.60;;;;;;1587779;74;792;-69
2021/10/25 01:00:03;;;;;;;;;;;23.00;42.70;;;;;;1591726;74;1163;-66
2021/10/25 01:02:05;;;;;;;;;;;22.90;42.70;;;;;;1590934;74;673;-66
2021/10/25 01:04:09;;;;;;;;;;;22.90;42.60;;;;;;1587590;74;815;-66
2021/10/25 01:06:10;;;;;;;;;;;23.00;42.60;;;;;;1590590;74;1742;-67
2021/10/25 01:08:12;;;;;;;;;;;23.00;42.60;;;;;;1592792;74;2186;-67
2021/10/25 01:10:14;;;;;;;;;;;23.00;42.60;;;;;;1589801;74;1239;-68
2021/10/25 01:12:16;;;;;;;;;;;22.90;42.60;;;;;;1590741;74;769;-65
2021/10/25 01:14:19;;;;;;;;;;;23.00;42.50;;;;;;1596179;74;774;-66
2021/10/25 01:16:20;;;;;;;;;;;23.00;42.60;;;;;;1591006;74;748;-68
2021/10/25 01:18:22;;;;;;;;;;;23.00;42.60;;;;;;1584356;74;796;-63
2021/10/25 01:20:25;;;;;;;;;;;22.90;42.60;;;;;;1587384;74;1131;-65
2021/10/25 01:22:27;;;;;;;;;;;23.00;42.50;;;;;;1582580;74;678;-68
2021/10/25 01:24:29;;;;;;;;;;;23.00;42.60;;;;;;1583935;74;680;-67
2021/10/25 01:26:31;;;;;;;;;;;23.00;42.50;;;;;;1574061;74;775;-67
2021/10/25 01:28:34;;;;;;;;;;;23.00;42.50;;;;;;1573243;74;1936;-65
2021/10/25 01:30:36;;;;;;;;;;;23.00;42.50;;;;;;1587888;74;1183;-65
2021/10/25 01:32:38;;;;;;;;;;;23.00;42.50;;;;;;1592551;74;776;-66
2021/10/25 01:34:40;;;;;;;;;;;23.00;42.40;;;;;;1583311;74;646;-67
2021/10/25 01:36:42;;;;;;;;;;;23.00;42.50;;;;;;1588610;74;773;-66
2021/10/25 01:38:44;;;;;;;;;;;23.00;42.50;;;;;;1587416;74;792;-68
2021/10/25 01:40:46;;;;;;;;;;;23.00;42.50;;;;;;1591371;74;1128;-66
2021/10/25 01:42:48;;;;;;;;;;;23.00;42.50;;;;;;1579737;74;767;-66
2021/10/25 01:44:49;;;;;;;;;;;23.00;42.40;;;;;;1590694;74;707;-66
2021/10/25 01:46:51;;;;;;;;;;;22.90;42.40;;;;;;1591522;74;702;-66
2021/10/25 01:48:53;;;;;;;;;;;23.00;42.40;;;;;;1589782;74;1937;-67
2021/10/25 01:50:55;;;;;;;;;;;22.90;42.40;;;;;;1588584;74;1138;-64
2021/10/25 01:53:00;;;;;;;;;;;22.90;42.40;;;;;;1576326;74;795;-67
2021/10/25 01:55:00;;;;;;;;;;;22.90;42.30;;;;;;1591376;74;1744;-66
2021/10/25 01:57:02;;;;;;;;;;;23.00;42.30;;;;;;1585147;74;826;-66
2021/10/25 01:59:06;;;;;;;;;;;23.00;42.30;;;;;;1582905;74;736;-66
2021/10/25 02:01:08;;;;;;;;;;;23.00;42.30;;;;;;1592004;74;1103;-66
2021/10/25 02:03:10;;;;;;;;;;;22.90;42.30;;;;;;1585899;74;698;-66
2021/10/25 02:05:12;;;;;;;;;;;22.90;42.20;;;;;;1574128;74;761;-66
2021/10/25 02:07:15;;;;;;;;;;;23.00;42.30;;;;;;1579864;74;695;-66
2021/10/25 02:09:16;;;;;;;;;;;22.90;42.20;;;;;;1573653;74;1914;-66
2021/10/25 02:11:18;;;;;;;;;;;22.90;42.10;;;;;;1590321;73;2132;-72
2021/10/25 02:13:21;;;;;;;;;;;23.00;42.20;;;;;;1612737;73;729;-71
2021/10/25 02:15:23;;;;;;;;;;;23.00;42.20;;;;;;1604127;73;812;-71
2021/10/25 02:17:25;;;;;;;;;;;22.90;42.20;;;;;;1590245;73;770;-72
2021/10/25 02:19:27;;;;;;;;;;;23.00;42.20;;;;;;1605558;73;713;-71
2021/10/25 02:21:28;;;;;;;;;;;23.00;42.30;;;;;;1579657;75;1211;-71
2021/10/25 02:23:30;;;;;;;;;;;23.00;42.20;;;;;;1574088;75;730;-71
2021/10/25 02:25:32;;;;;;;;;;;23.00;42.20;;;;;;1555719;75;767;-70
2021/10/25 02:27:34;;;;;;;;;;;23.00;42.30;;;;;;1534422;75;724;-72
2021/10/25 02:29:36;;;;;;;;;;;23.10;42.40;;;;;;1542128;75;1936;-70
2021/10/25 02:31:38;;;;;;;;;;;23.10;42.40;;;;;;1534281;75;1199;-71
2021/10/25 02:33:40;;;;;;;;;;;23.00;42.30;;;;;;1534590;75;721;-75
2021/10/25 02:35:42;;;;;;;;;;;23.00;42.20;;;;;;1543558;75;736;-75
2021/10/25 02:37:44;;;;;;;;;;;23.00;42.20;;;;;;1549137;75;784;-74
2021/10/25 02:39:46;;;;;;;;;;;23.00;42.20;;;;;;1535669;75;790;-76
2021/10/25 02:41:48;;;;;;;;;;;23.00;42.20;;;;;;1551434;75;1147;-72
2021/10/25 02:43:50;;;;;;;;;;;23.00;42.20;;;;;;1553396;75;802;-73
2021/10/25 02:45:52;;;;;;;;;;;23.00;42.20;;;;;;1544873;75;734;-74
2021/10/25 02:47:53;;;;;;;;;;;23.00;42.20;;;;;;1537708;75;722;-73
2021/10/25 02:49:56;;;;;;;;;;;23.00;42.20;;;;;;1537336;75;1940;-70
2021/10/25 02:51:58;;;;;;;;;;;23.00;42.20;;;;;;1539100;75;1091;-72
2021/10/25 02:54:00;;;;;;;;;;;23.10;42.30;;;;;;1534459;75;763;-75
2021/10/25 02:56:02;;;;;;;;;;;23.20;42.20;;;;;;1539265;75;708;-71
2021/10/25 02:58:04;;;;;;;;;;;23.20;42.00;;;;;;1543058;75;673;-73
2021/10/25 03:00:07;;;;;;;;;;;23.40;41.90;;;;;;1547801;74;734;-74
2021/10/25 03:02:09;;;;;;;;;;;23.40;41.70;;;;;;1540572;75;1152;-72
2021/10/25 03:04:11;;;;;;;;;;;23.40;41.60;;;;;;1540463;76;730;-75
2021/10/25 03:06:14;;;;;;;;;;;23.40;41.50;;;;;;1534119;75;824;-74
2021/10/25 03:08:16;;;;;;;;;;;23.50;41.60;;;;;;1533125;75;728;-71
2021/10/25 03:10:18;;;;;;;;;;;23.50;41.50;;;;;;1528924;75;1917;-73
2021/10/25 03:12:19;;;;;;;;;;;23.50;41.50;;;;;;1535418;75;1086;-74
2021/10/25 03:14:21;;;;;;;;;;;23.50;41.40;;;;;;1540683;76;747;-72
2021/10/25 03:16:23;;;;;;;;;;;23.60;41.30;;;;;;1538194;75;777;-72
2021/10/25 03:18:25;;;;;;;;;;;23.60;41.20;;;;;;1540481;76;821;-73
2021/10/25 03:20:27;;;;;;;;;;;23.60;41.20;;;;;;1548286;74;1166;-73
2021/10/25 03:22:29;;;;;;;;;;;23.60;41.40;;;;;;1538217;76;721;-73
2021/10/25 03:24:31;;;;;;;;;;;23.60;41.40;;;;;;1531339;75;753;-73
2021/10/25 03:26:33;;;;;;;;;;;23.50;41.40;;;;;;1540970;76;811;-72
2021/10/25 03:28:35;;;;;;;;;;;23.60;41.30;;;;;;1549922;74;766;-73
2021/10/25 03:30:37;;;;;;;;;;;23.50;41.30;;;;;;1540244;76;1947;-72
2021/10/25 03:32:40;;;;;;;;;;;23.50;41.30;;;;;;1537119;76;895;-73
2021/10/25 03:34:42;;;;;;;;;;;23.50;41.40;;;;;;1559433;76;706;-73
2021/10/25 03:36:46;;;;;;;;;;;23.60;41.30;;;;;;1559484;76;750;-72
2021/10/25 03:38:48;;;;;;;;;;;23.70;41.30;;;;;;1537674;75;1692;-72
2021/10/25 03:40:52;;;;;;;;;;;23.70;41.20;;;;;;1545544;75;1123;-71
2021/10/25 03:42:55;;;;;;;;;;;23.80;41.10;;;;;;1540036;75;1583;-73
2021/10/25 03:45:11;;;;;;;;;;;23.70;41.10;;;;;;1546433;75;715;-73
2021/10/25 03:47:13;;;;;;;;;;;23.60;41.00;;;;;;1541534;75;1669;-73
2021/10/25 03:51:17;;;;;;;;;;;23.60;41.00;;;;;;1545248;75;1163;-71
2021/10/25 03:55:35;;;;;;;;;;;23.50;41.30;;;;;;1537554;75;674;-76
2021/10/25 04:00:14;;;;;;;;;;;23.50;41.40;;;;;;1534874;75;1621;-73
2021/10/25 04:27:24;;;;;;;;;;;23.20;41.70;;;;;;1540383;75;1604;-74
2021/10/25 04:29:24;;;;;;;;;;;23.20;41.70;;;;;;1537388;75;1944;-75
2021/10/25 04:31:23;;;;;;;;;;;23.10;41.80;;;;;;1537070;75;1683;-73
2021/10/25 04:33:25;;;;;;;;;;;23.20;41.80;;;;;;1540724;76;780;-73
2021/10/25 04:35:27;;;;;;;;;;;23.20;41.70;;;;;;1532761;75;727;-69
2021/10/25 04:37:29;;;;;;;;;;;23.20;41.70;;;;;;1540635;76;748;-73
2021/10/25 04:39:31;;;;;;;;;;;23.20;41.70;;;;;;1538846;75;779;-74
2021/10/25 04:41:33;;;;;;;;;;;23.20;41.70;;;;;;1539853;76;1150;-74
2021/10/25 04:43:35;;;;;;;;;;;23.20;41.80;;;;;;1544170;75;745;-74
2021/10/25 04:45:37;;;;;;;;;;;23.20;41.70;;;;;;1544173;74;842;-74
2021/10/25 04:47:39;;;;;;;;;;;23.10;41.70;;;;;;1544929;76;773;-73
2021/10/25 04:49:41;;;;;;;;;;;23.20;41.70;;;;;;1548029;76;1943;-72
2021/10/25 04:51:43;;;;;;;;;;;23.20;41.80;;;;;;1554368;75;1146;-73
2021/10/25 04:53:45;;;;;;;;;;;23.20;41.80;;;;;;1554913;75;845;-73
2021/10/25 04:55:47;;;;;;;;;;;23.20;41.80;;;;;;1576253;74;777;-72
2021/10/25 04:57:49;;;;;;;;;;;23.20;41.80;;;;;;1572124;75;802;-72
2021/10/25 04:59:51;;;;;;;;;;;23.30;41.80;;;;;;1568562;75;664;-73
2021/10/25 05:01:53;;;;;;;;;;;23.20;41.70;;;;;;1570734;74;1131;-73
2021/10/25 05:03:55;;;;;;;;;;;23.20;41.80;;;;;;1569889;74;868;-73
2021/10/25 05:05:57;;;;;;;;;;;23.20;41.80;;;;;;1571128;75;707;-74
2021/10/25 05:07:59;;;;;;;;;;;23.20;41.80;;;;;;1537169;75;734;-72
2021/10/25 05:10:06;;;;;;;;;;;23.20;41.70;;;;;;1545827;75;1933;-70
2021/10/25 05:12:05;;;;;;;;;;;23.30;41.80;;;;;;1550959;75;1535;-72
2021/10/25 05:14:07;;;;;;;;;;;23.40;41.80;;;;;;1571599;75;728;-69
2021/10/25 05:16:09;;;;;;;;;;;23.40;41.70;;;;;;1567971;75;710;-71
2021/10/25 05:18:10;;;;;;;;;;;23.30;41.70;;;;;;1572953;75;660;-69
2021/10/25 05:20:12;;;;;;;;;;;23.30;41.50;;;;;;1565793;75;802;-72
2021/10/25 05:22:14;;;;;;;;;;;23.40;41.50;;;;;;1574325;75;1140;-68
2021/10/25 05:24:17;;;;;;;;;;;23.30;41.50;;;;;;1571228;74;995;-67
2021/10/25 05:26:19;;;;;;;;;;;23.40;41.50;;;;;;1552575;74;748;-67
2021/10/25 05:28:20;;;;;;;;;;;23.40;41.40;;;;;;1571143;75;726;-69
2021/10/25 05:30:22;;;;;;;;;;;23.40;41.20;;;;;;1568484;74;1935;-67
2021/10/25 05:32:24;;;;;;;;;;;23.30;41.20;;;;;;1576193;75;1167;-68
2021/10/25 05:34:26;;;;;;;;;;;23.30;41.20;;;;;;1569554;75;834;-68
2021/10/25 05:36:28;;;;;;;;;;;23.20;41.10;;;;;;1575316;75;814;-68
2021/10/25 05:38:30;;;;;;;;;;;23.20;41.20;;;;;;1571370;75;774;-66
2021/10/25 05:40:32;;;;;;;;;;;23.20;41.20;;;;;;1556638;74;1088;-67
2021/10/25 05:42:34;;;;;;;;;;;23.20;41.30;;;;;;1556654;75;837;-68
2021/10/25 05:44:36;;;;;;;;;;;23.20;41.30;;;;;;1562696;75;778;-67
2021/10/25 05:46:39;;;;;;;;;;;23.20;41.20;;;;;;1574627;75;706;-68
2021/10/25 05:48:41;;;;;;;;;;;23.10;41.20;;;;;;1561940;75;739;-68
2021/10/25 05:50:45;;;;;;;;;;;23.30;41.30;;;;;;1580978;74;1925;-66
2021/10/25 05:52:46;;;;;;;;;;;23.10;41.10;;;;;;1563091;75;711;-68
2021/10/25 05:54:49;;;;;;;;;;;23.10;41.20;;;;;;1561886;75;705;-68
2021/10/25 05:56:51;;;;;;;;;;;23.10;41.20;;;;;;1539859;76;785;-68
2021/10/25 05:58:53;;;;;;;;;;;23.10;41.20;;;;;;1573404;74;713;-68
2021/10/25 06:00:57;;;;;;;;;;;23.10;41.20;;;;;;1566882;74;1161;-69
2021/10/25 06:02:58;;;;;;;;;;;23.00;41.10;;;;;;1544474;75;1159;-68
2021/10/25 06:05:00;;;;;;;;;;;23.10;41.30;;;;;;1562666;75;855;-69
2021/10/25 06:07:02;;;;;;;;;;;23.00;41.00;;;;;;1554241;76;664;-68
2021/10/25 06:09:05;;;;;;;;;;;23.00;41.10;;;;;;1565337;75;731;-67
2021/10/25 06:11:08;;;;;;;;;;;23.00;41.00;;;;;;1561547;75;1907;-70
2021/10/25 06:13:14;;;;;;;;;;;23.00;41.10;;;;;;1540699;76;796;-71
2021/10/25 06:15:18;;;;;;;;;;;23.00;40.70;;;;;;1559178;75;1683;-69
2021/10/25 06:17:38;;;;;;;;;;;23.00;40.00;;;;;;1541724;75;1680;-69
2021/10/25 06:19:29;;;;;;;;;;;23.00;39.00;;;;;;1560918;75;1149;-68
2021/10/25 06:21:31;;;;;;;;;;;22.90;38.30;;;;;;1552226;75;1192;-73
2021/10/25 06:23:33;;;;;;;;;;;22.90;38.10;;;;;;1544483;76;736;-72
2021/10/25 06:25:35;;;;;;;;;;;22.90;37.80;;;;;;1562084;74;706;-70
2021/10/25 06:27:37;;;;;;;;;;;22.80;37.50;;;;;;1542930;76;892;-72
2021/10/25 06:29:39;;;;;;;;;;;22.80;37.10;;;;;;1544569;75;758;-73
2021/10/25 06:31:41;;;;;;;;;;;22.80;37.30;;;;;;1552486;76;1937;-69
2021/10/25 06:33:45;;;;;;;;;;;22.80;37.00;;;;;;1552466;76;776;-69
2021/10/25 06:35:56;;;;;;;;;;;22.80;36.90;;;;;;1565829;75;726;-69
2021/10/25 06:38:06;;;;;;;;;;;22.70;36.40;;;;;;1570382;75;1648;-69
2021/10/25 06:40:03;;;;;;;;;;;22.60;36.20;;;;;;1554013;75;1644;-69
2021/10/25 06:42:04;;;;;;;;;;;22.60;36.70;;;;;;1558669;73;1672;-70
2021/10/25 06:44:06;;;;;;;;;;;22.70;37.30;;;;;;1538736;75;676;-70
2021/10/25 06:46:08;;;;;;;;;;;22.70;37.60;;;;;;1570848;74;783;-70
2021/10/25 06:48:10;;;;;;;;;;;22.70;37.70;;;;;;1566803;74;715;-71
2021/10/25 06:50:12;;;;;;;;;;;22.80;37.60;;;;;;1569011;75;1935;-71
2021/10/25 06:52:14;;;;;;;;;;;22.90;37.80;;;;;;1562765;75;1126;-70
2021/10/25 06:54:15;;;;;;;;;;;22.90;37.80;;;;;;1558886;76;658;-70
2021/10/25 06:56:17;;;;;;;;;;;23.00;37.80;;;;;;1557009;75;704;-71
2021/10/25 06:58:21;;;;;;;;;;;23.00;37.90;;;;;;1556441;75;862;-71
2021/10/25 07:00:23;;;;;;;;;;;23.10;38.00;;;;;;1555641;75;771;-71
2021/10/25 07:02:25;;;;;;;;;;;23.00;38.00;;;;;;1553371;75;1157;-71
2021/10/25 07:04:27;;;;;;;;;;;23.00;38.10;;;;;;1555011;75;801;-70
2021/10/25 07:06:31;;;;;;;;;;;23.00;38.10;;;;;;1555930;75;739;-69
2021/10/25 07:08:33;;;;;;;;;;;23.10;38.20;;;;;;1551746;75;1702;-70
2021/10/25 07:10:36;;;;;;;;;;;23.20;38.10;;;;;;1572856;73;1907;-71
2021/10/25 07:12:39;;;;;;;;;;;23.20;38.10;;;;;;1558108;75;813;-72
2021/10/25 07:14:41;;;;;;;;;;;23.30;38.10;;;;;;1572939;74;795;-71
2021/10/25 07:16:51;;;;;;;;;;;23.30;38.00;;;;;;1558886;75;803;-68
2021/10/25 07:21:32;;;;;;;;;;;23.50;38.10;;;;;;1562679;75;1165;-69
2021/10/25 08:02:41;;;;;;;;;;;23.50;38.50;;;;;;1561195;75;1172;-70
2021/10/25 08:04:39;;;;;;;;;;;23.40;38.50;;;;;;1541446;75;1520;-70
2021/10/25 08:06:43;;;;;;;;;;;23.50;38.70;;;;;;1551167;75;1718;-70
2021/10/25 08:12:58;;;;;;;;;;;23.50;38.70;;;;;;1560846;76;662;-72
2021/10/25 08:15:04;;;;;;;;;;;23.50;38.70;;;;;;1525654;77;1218;-75
2021/10/25 08:17:03;;;;;;;;;;;23.60;38.60;;;;;;1542547;76;1006;-72
2021/10/25 08:19:12;;;;;;;;;;;23.60;38.60;;;;;;1538430;76;623;-72
2021/10/25 08:21:09;;;;;;;;;;;23.60;38.60;;;;;;1534114;75;1247;-71
2021/10/25 08:23:11;;;;;;;;;;;23.60;38.60;;;;;;1505333;77;714;-72
2021/10/25 08:25:13;;;;;;;;;;;23.50;38.70;;;;;;1504627;78;740;-71
2021/10/25 08:27:16;;;;;;;;;;;23.50;38.70;;;;;;1500167;78;806;-72
2021/10/25 08:29:18;;;;;;;;;;;23.50;38.80;;;;;;1531902;77;735;-72
2021/10/25 08:31:22;;;;;;;;;;;23.50;38.80;;;;;;1542729;77;1924;-71
2021/10/25 08:35:55;;;;;;;;;;;23.50;38.90;;;;;;1532013;77;877;-73
2021/10/25 08:40:14;;;;;;;;;;;23.50;39.00;;;;;;1524082;77;948;-75
2021/10/25 08:42:17;;;;;;;;;;;23.40;38.90;;;;;;1517427;77;1123;-71
2021/10/25 08:44:20;;;;;;;;;;;23.50;39.00;;;;;;1527839;77;717;-72
2021/10/25 08:46:24;;;;;;;;;;;23.50;39.00;;;;;;1530019;77;781;-72
2021/10/25 08:48:25;;;;;;;;;;;23.50;39.00;;;;;;1528477;77;1699;-72
2021/10/25 08:50:33;;;;;;;;;;;23.50;39.00;;;;;;1524952;77;572;-72
2021/10/25 08:52:31;;;;;;;;;;;23.50;39.00;;;;;;1525588;77;1625;-71
2021/10/25 08:54:33;;;;;;;;;;;23.50;39.00;;;;;;1522133;77;792;-72
2021/10/25 08:56:35;;;;;;;;;;;23.50;39.00;;;;;;1514168;77;877;-74
2021/10/25 08:58:38;;;;;;;;;;;23.40;38.90;;;;;;1527521;77;698;-71
2021/10/25 09:00:42;;;;;;;;;;;23.50;39.00;;;;;;1517237;77;748;-70
2021/10/25 09:02:44;;;;;;;;;;;23.50;39.00;;;;;;1533005;77;1059;-70
2021/10/25 09:04:48;;;;;;;;;;;23.60;39.00;;;;;;1519427;77;772;-69
2021/10/25 09:06:55;;;;;;;;;;;23.60;38.90;;;;;;1528795;77;1903;-71
2021/10/25 09:09:00;;;;;;;;;;;23.60;39.00;;;;;;1537761;77;678;-71
2021/10/25 09:11:02;;;;;;;;;;;23.70;39.00;;;;;;1527670;77;1947;-71
2021/10/25 09:13:05;;;;;;;;;;;23.70;39.10;;;;;;1531661;77;803;-73
2021/10/25 09:15:07;;;;;;;;;;;23.70;39.10;;;;;;1523478;77;816;-70
2021/10/25 09:17:09;;;;;;;;;;;23.60;39.50;;;;;;1527762;77;701;-70
2021/10/25 09:19:18;;;;;;;;;;;23.50;40.50;;;;;;1540451;77;783;-70
2021/10/25 09:21:19;;;;;;;;;;;23.50;41.00;;;;;;1507482;77;1192;-69
2021/10/25 09:23:26;;;;;;;;;;;23.60;41.10;;;;;;1516493;77;778;-70
2021/10/25 09:25:31;;;;;;;;;;;23.60;40.90;;;;;;1536039;77;749;-68
2021/10/25 09:27:37;;;;;;;;;;;23.80;41.00;;;;;;1520071;77;830;-71
2021/10/25 09:29:40;;;;;;;;;;;23.90;41.20;;;;;;1535290;77;762;-69
2021/10/25 09:31:43;;;;;;;;;;;23.90;41.00;;;;;;1527241;77;1905;-70
2021/10/25 09:33:46;;;;;;;;;;;23.90;41.10;;;;;;1504674;78;1033;-69
2021/10/25 09:35:52;;;;;;;;;;;23.90;41.20;;;;;;1525538;77;1042;-70
2021/10/25 09:37:59;;;;;;;;;;;23.90;41.70;;;;;;1527329;77;1572;-70
2021/10/25 09:40:05;;;;;;;;;;;23.70;42.00;;;;;;1523588;77;1658;-69
2021/10/25 09:51:04;;;;;;;;;;;23.60;42.30;;;;;;1519543;77;1929;-66
2021/10/25 09:53:07;;;;;;;;;;;23.60;42.50;;;;;;1520819;77;812;-69
2021/10/25 09:55:17;;;;;;;;;;;23.50;42.60;;;;;;1513571;77;1719;-66
2021/10/25 09:57:25;;;;;;;;;;;23.50;42.60;;;;;;1514150;77;667;-74
2021/10/25 10:00:07;;;;;;;;;;;23.50;42.70;;;;;;1510147;77;1691;-70
2021/10/25 10:01:31;;;;;;;;;;;23.50;42.80;;;;;;1499928;77;1373;-68
2021/10/25 10:03:33;;;;;;;;;;;23.50;42.80;;;;;;1513766;77;955;-69
2021/10/25 10:05:36;;;;;;;;;;;23.50;42.80;;;;;;1515413;77;765;-71
2021/10/25 10:07:39;;;;;;;;;;;23.50;42.80;;;;;;1515751;77;796;-70
2021/10/25 10:09:41;;;;;;;;;;;23.50;42.90;;;;;;1515527;77;785;-70
2021/10/25 10:11:43;;;;;;;;;;;23.50;42.90;;;;;;1515057;77;1953;-69
2021/10/25 10:13:45;;;;;;;;;;;23.40;42.80;;;;;;1515705;77;766;-70
2021/10/25 10:15:48;;;;;;;;;;;23.50;42.90;;;;;;1515794;77;730;-70
2021/10/25 10:17:59;;;;;;;;;;;23.50;42.90;;;;;;1515548;77;733;-71
2021/10/25 10:20:00;;;;;;;;;;;23.60;42.80;;;;;;1512729;77;1507;-73
2021/10/25 10:22:02;;;;;;;;;;;23.60;42.70;;;;;;1512854;77;1242;-71
2021/10/25 10:24:06;;;;;;;;;;;23.60;42.60;;;;;;1513453;77;686;-72
2021/10/25 10:26:09;;;;;;;;;;;23.70;42.50;;;;;;1515717;77;1692;-69
2021/10/25 10:28:13;;;;;;;;;;;23.70;42.40;;;;;;1515438;77;992;-70
2021/10/25 10:30:15;;;;;;;;;;;23.90;42.30;;;;;;1515768;77;805;-69
2021/10/25 10:32:16;;;;;;;;;;;23.80;42.10;;;;;;1509749;77;1937;-72
2021/10/25 10:34:18;;;;;;;;;;;24.00;42.00;;;;;;1515596;77;747;-69
2021/10/25 10:36:22;;;;;;;;;;;23.90;41.90;;;;;;1514232;77;738;-68
2021/10/25 10:38:31;;;;;;;;;;;23.90;41.90;;;;;;1512138;77;802;-71
2021/10/25 10:40:39;;;;;;;;;;;24.00;41.80;;;;;;1515232;77;774;-72
2021/10/25 10:42:46;;;;;;;;;;;24.00;41.70;;;;;;1515684;77;1088;-70
2021/10/25 10:44:50;;;;;;;;;;;24.00;41.70;;;;;;1512903;77;1901;-68
2021/10/25 10:46:56;;;;;;;;;;;24.00;41.70;;;;;;1515668;77;746;-72
2021/10/25 10:48:59;;;;;;;;;;;24.00;41.70;;;;;;1515762;77;770;-69
2021/10/25 10:51:06;;;;;;;;;;;23.90;41.70;;;;;;1513979;77;1146;-68
2021/10/25 10:53:22;;;;;;;;;;;23.90;41.80;;;;;;1514008;77;1907;-69
2021/10/25 10:55:33;;;;;;;;;;;23.90;41.80;;;;;;1507663;77;1653;-69
2021/10/25 10:58:41;;;;;;;;;;;23.90;41.90;;;;;;1511780;77;1575;-67
2021/10/25 10:59:50;;;;;;;;;;;23.80;41.80;;;;;;1473065;77;1397;-69
2021/10/25 11:01:57;;;;;;;;;;;23.80;41.90;;;;;;1515192;77;1632;-67
2021/10/25 11:04:00;;;;;;;;;;;23.70;42.00;;;;;;1513689;77;772;-70
2021/10/25 11:06:07;;;;;;;;;;;23.70;41.90;;;;;;1517325;77;729;-72
2021/10/25 11:08:11;;;;;;;;;;;23.80;42.00;;;;;;1515817;77;919;-69
2021/10/25 11:10:13;;;;;;;;;;;23.70;41.90;;;;;;1514752;77;681;-70
2021/10/25 11:12:20;;;;;;;;;;;23.70;42.00;;;;;;1523900;77;1945;-75
2021/10/25 11:14:27;;;;;;;;;;;23.60;41.80;;;;;;1525343;77;1667;-69
2021/10/25 11:18:47;;;;;;;;;;;23.60;41.90;;;;;;1531245;77;1649;-69
2021/10/25 11:20:53;;;;;;;;;;;23.70;42.00;;;;;;1520447;77;1188;-70
2021/10/25 11:22:52;;;;;;;;;;;23.60;41.90;;;;;;1520800;77;1679;-71
2021/10/25 11:24:55;;;;;;;;;;;23.60;42.00;;;;;;1527585;77;756;-71
2021/10/25 11:26:58;;;;;;;;;;;23.60;42.00;;;;;;1522836;77;729;-71
2021/10/25 11:29:04;;;;;;;;;;;23.60;42.00;;;;;;1521570;77;733;-69
2021/10/25 11:31:06;;;;;;;;;;;23.50;42.00;;;;;;1523857;77;1104;-69
2021/10/25 11:33:08;;;;;;;;;;;23.50;42.00;;;;;;1518969;77;1942;-69
2021/10/25 11:35:12;;;;;;;;;;;23.50;42.00;;;;;;1527745;77;798;-69
2021/10/25 11:37:19;;;;;;;;;;;23.50;42.10;;;;;;1537783;77;2017;-69
2021/10/25 11:39:25;;;;;;;;;;;23.50;42.10;;;;;;1524727;77;742;-69
2021/10/25 11:41:27;;;;;;;;;;;23.50;42.10;;;;;;1522241;77;1150;-69
2021/10/25 11:43:30;;;;;;;;;;;23.50;42.10;;;;;;1524572;77;712;-68
2021/10/25 11:45:32;;;;;;;;;;;23.50;42.10;;;;;;1507729;77;744;-69
2021/10/25 11:47:36;;;;;;;;;;;23.40;42.00;;;;;;1521253;77;827;-68
2021/10/25 11:49:38;;;;;;;;;;;23.40;42.10;;;;;;1526973;77;1804;-69
2021/10/25 11:51:49;;;;;;;;;;;23.40;42.10;;;;;;1522105;77;1923;-69
2021/10/25 11:53:55;;;;;;;;;;;23.40;42.10;;;;;;1526623;77;796;-68
2021/10/25 11:55:57;;;;;;;;;;;23.40;42.10;;;;;;1525217;77;1902;-71
2021/10/25 11:58:00;;;;;;;;;;;23.40;42.20;;;;;;1525939;77;756;-69
2021/10/25 12:00:04;;;;;;;;;;;23.40;42.20;;;;;;1515864;77;824;-72
2021/10/25 12:02:10;;;;;;;;;;;23.40;42.20;;;;;;1512129;77;1200;-71
2021/10/25 12:04:12;;;;;;;;;;;23.30;42.10;;;;;;1527539;77;973;-68
2021/10/25 12:06:15;;;;;;;;;;;23.40;42.30;;;;;;1527371;77;742;-68
2021/10/25 12:08:17;;;;;;;;;;;23.30;42.30;;;;;;1527067;77;1872;-69
2021/10/25 12:10:20;;;;;;;;;;;23.30;42.40;;;;;;1523329;77;712;-69
2021/10/25 12:12:22;;;;;;;;;;;23.40;42.40;;;;;;1527448;77;1929;-70
2021/10/25 12:14:27;;;;;;;;;;;23.30;42.40;;;;;;1539735;77;773;-69
2021/10/25 12:16:28;;;;;;;;;;;23.50;42.60;;;;;;1527826;77;1710;-68
2021/10/25 12:18:30;;;;;;;;;;;23.30;42.60;;;;;;1529918;77;941;-70
2021/10/25 12:20:33;;;;;;;;;;;23.30;42.60;;;;;;1526405;77;789;-73
2021/10/25 12:22:35;;;;;;;;;;;23.30;42.60;;;;;;1512872;77;1828;-72
2021/10/25 12:24:38;;;;;;;;;;;23.30;42.60;;;;;;1535071;77;745;-73
2021/10/25 12:26:41;;;;;;;;;;;23.30;42.60;;;;;;1527476;77;713;-69
2021/10/25 12:28:43;;;;;;;;;;;23.40;42.60;;;;;;1527486;77;704;-70
2021/10/25 12:31:03;;;;;;;;;;;23.30;42.60;;;;;;1526703;77;696;-69
2021/10/25 12:33:05;;;;;;;;;;;23.40;42.60;;;;;;1521404;77;1925;-70
2021/10/25 12:35:07;;;;;;;;;;;23.40;42.60;;;;;;1525883;77;658;-69
2021/10/25 12:37:10;;;;;;;;;;;23.40;42.60;;;;;;1527778;77;725;-68
2021/10/25 12:39:13;;;;;;;;;;;23.40;42.60;;;;;;1525012;77;1919;-67
2021/10/25 12:41:15;;;;;;;;;;;23.40;42.50;;;;;;1526956;77;1139;-72
2021/10/25 12:43:17;;;;;;;;;;;23.30;42.60;;;;;;1522051;77;719;-68
2021/10/25 12:45:22;;;;;;;;;;;23.40;42.60;;;;;;1521783;77;745;-68
2021/10/25 12:47:25;;;;;;;;;;;23.40;42.50;;;;;;1527633;77;1957;-68
2021/10/25 12:49:26;;;;;;;;;;;23.40;42.50;;;;;;1520272;77;804;-68
2021/10/25 12:51:36;;;;;;;;;;;23.40;42.60;;;;;;1515508;77;1163;-65
2021/10/25 12:53:45;;;;;;;;;;;23.40;42.50;;;;;;1522789;77;1932;-69
2021/10/25 12:55:54;;;;;;;;;;;23.40;42.60;;;;;;1521591;77;671;-70
2021/10/25 12:57:56;;;;;;;;;;;23.40;42.50;;;;;;1535767;77;705;-65
2021/10/25 13:00:11;;;;;;;;;;;23.40;42.50;;;;;;1513581;77;695;-71
2021/10/25 13:02:14;;;;;;;;;;;23.50;42.60;;;;;;1526106;77;1168;-68
2021/10/25 13:04:18;;;;;;;;;;;23.50;42.60;;;;;;1526170;77;1718;-76
2021/10/25 13:06:26;;;;;;;;;;;23.40;42.50;;;;;;1514875;77;809;-68
2021/10/25 13:08:25;;;;;;;;;;;23.50;42.60;;;;;;1535684;77;1689;-69
2021/10/25 13:10:28;;;;;;;;;;;23.50;42.50;;;;;;1527688;77;783;-68
2021/10/25 13:12:31;;;;;;;;;;;23.50;42.50;;;;;;1524036;77;1933;-71
2021/10/25 13:14:33;;;;;;;;;;;23.50;42.40;;;;;;1527380;77;795;-71
2021/10/25 13:16:45;;;;;;;;;;;23.50;42.40;;;;;;1519229;77;704;-69
2021/10/25 13:18:47;;;;;;;;;;;23.60;42.40;;;;;;1532976;77;675;-70
2021/10/25 13:20:49;;;;;;;;;;;23.50;42.40;;;;;;1520953;77;1168;-70
2021/10/25 13:22:52;;;;;;;;;;;23.50;42.50;;;;;;1516948;77;823;-72
2021/10/25 13:24:54;;;;;;;;;;;23.50;42.50;;;;;;1516824;77;741;-69
2021/10/25 13:26:56;;;;;;;;;;;23.50;42.50;;;;;;1516555;77;709;-70
2021/10/25 13:28:58;;;;;;;;;;;23.50;42.50;;;;;;1514744;77;786;-70
2021/10/25 13:30:59;;;;;;;;;;;23.50;42.50;;;;;;1516758;77;1133;-72
2021/10/25 13:33:02;;;;;;;;;;;23.50;42.50;;;;;;1512623;77;1919;-69
2021/10/25 13:35:04;;;;;;;;;;;23.60;42.50;;;;;;1527913;77;722;-69
2021/10/25 13:37:07;;;;;;;;;;;23.60;42.40;;;;;;1517234;77;786;-70
2021/10/25 13:39:09;;;;;;;;;;;23.60;42.50;;;;;;1518041;77;775;-69
2021/10/25 13:41:10;;;;;;;;;;;23.70;42.50;;;;;;1525143;77;1143;-70
2021/10/25 13:43:12;;;;;;;;;;;23.70;42.50;;;;;;1508369;77;781;-71
2021/10/25 13:45:14;;;;;;;;;;;23.80;42.60;;;;;;1512770;77;796;-70
2021/10/25 13:47:16;;;;;;;;;;;23.80;42.60;;;;;;1493383;77;762;-68